createdAt,value
2023-04-20T00:01:29.568Z,8.63
2023-04-20T00:03:51.955Z,7.23
2023-04-20T00:06:15.582Z,7.97
2023-04-20T00:08:36.866Z,8.13
2023-04-20T00:10:58.281Z,7.83
2023-04-20T00:13:19.663Z,7.30
2023-04-20T00:15:40.884Z,8.87
2023-04-20T00:18:02.223Z,9.80
2023-04-20T00:20:23.485Z,7.20
2023-04-20T00:22:46.024Z,7.60
2023-04-20T00:25:07.912Z,8.63
2023-04-20T00:27:29.450Z,8.93
2023-04-20T00:29:50.678Z,10.63
2023-04-20T00:32:12.145Z,9.13
2023-04-20T00:34:33.452Z,10.43
2023-04-20T00:36:54.854Z,10.30
2023-04-20T00:39:17.462Z,9.30
2023-04-20T00:41:39.201Z,8.83
2023-04-20T00:44:00.720Z,7.83
2023-04-20T00:46:22.276Z,8.20
2023-04-20T00:48:43.909Z,8.97
2023-04-20T00:51:05.080Z,8.60
2023-04-20T00:53:26.033Z,9.20
2023-04-20T00:55:48.804Z,8.50
2023-04-20T00:58:09.887Z,8.53
2023-04-20T01:00:31.344Z,8.07
2023-04-20T01:02:52.806Z,9.13
2023-04-20T01:05:14.384Z,8.40
2023-04-20T01:07:36.744Z,8.07
2023-04-20T01:09:58.176Z,7.53
2023-04-20T01:12:20.857Z,9.07
2023-04-20T01:14:42.061Z,7.50
2023-04-20T01:17:04.583Z,8.80
2023-04-20T01:19:26.691Z,9.03
2023-04-20T01:21:48.026Z,8.77
2023-04-20T01:24:10.536Z,10.10
2023-04-20T01:26:31.445Z,9.37
2023-04-20T01:28:52.897Z,8.83
2023-04-20T01:31:14.464Z,10.30
2023-04-20T01:33:36.320Z,9.17
2023-04-20T01:35:57.786Z,9.47
2023-04-20T01:38:19.148Z,10.80
2023-04-20T01:40:41.708Z,14.33
2023-04-20T01:43:03.140Z,9.03
2023-04-20T01:45:24.479Z,8.67
2023-04-20T01:47:45.884Z,8.57
2023-04-20T01:50:07.349Z,10.47
2023-04-20T01:52:28.361Z,10.40
2023-04-20T01:54:49.749Z,8.93
2023-04-20T01:57:12.365Z,10.67
2023-04-20T01:59:33.621Z,9.63
2023-04-20T02:01:54.920Z,8.77
2023-04-20T02:04:16.252Z,8.83
2023-04-20T02:06:37.532Z,9.27
2023-04-20T02:09:11.356Z,9.03
2023-04-20T02:11:32.398Z,10.43
2023-04-20T02:13:55.025Z,10.13
2023-04-20T02:16:16.232Z,9.80
2023-04-20T02:18:37.511Z,10.03
2023-04-20T02:20:58.742Z,9.30
2023-04-20T02:23:20.056Z,9.33
2023-04-20T02:25:41.296Z,9.47
2023-04-20T02:28:02.601Z,9.83
2023-04-20T02:30:25.402Z,9.77
2023-04-20T02:32:46.739Z,9.30
2023-04-20T02:35:08.874Z,10.40
2023-04-20T02:37:30.047Z,11.17
2023-04-20T02:39:51.161Z,10.67
2023-04-20T02:42:12.287Z,10.30
2023-04-20T02:44:33.555Z,13.77
2023-04-20T02:46:56.311Z,9.57
2023-04-20T02:49:17.697Z,9.40
2023-04-20T02:51:39.330Z,9.60
2023-04-20T02:54:00.483Z,9.93
2023-04-20T02:56:21.642Z,10.03
2023-04-20T02:58:42.856Z,10.33
2023-04-20T03:01:04.059Z,9.80
2023-04-20T03:03:27.496Z,9.33
2023-04-20T03:05:48.783Z,10.00
2023-04-20T03:08:10.101Z,10.40
2023-04-20T03:10:31.499Z,10.67
2023-04-20T03:12:52.988Z,9.50
2023-04-20T03:15:15.675Z,9.70
2023-04-20T03:17:36.940Z,10.10
2023-04-20T03:19:59.631Z,10.20
2023-04-20T03:22:21.024Z,9.97
2023-04-20T03:24:42.289Z,10.50
2023-04-20T03:27:03.603Z,9.70
2023-04-20T03:29:24.839Z,9.23
2023-04-20T03:31:46.470Z,9.80
2023-04-20T03:34:08.058Z,9.87
2023-04-20T03:36:30.551Z,10.97
2023-04-20T03:38:51.882Z,12.90
2023-04-20T03:41:13.372Z,12.33
2023-04-20T03:43:34.883Z,11.80
2023-04-20T03:45:56.592Z,10.43
2023-04-20T03:48:17.825Z,9.70
2023-04-20T03:50:39.527Z,10.03
2023-04-20T03:53:02.194Z,10.70
2023-04-20T03:55:23.402Z,9.97
2023-04-20T03:57:44.776Z,11.27
2023-04-20T04:00:06.627Z,10.67
2023-04-20T04:02:28.782Z,10.23
2023-04-20T04:04:50.325Z,10.70
2023-04-20T04:07:11.467Z,10.63
2023-04-20T04:09:34.068Z,10.70
2023-04-20T04:11:54.982Z,11.37
2023-04-20T04:14:16.513Z,10.93
2023-04-20T04:16:37.905Z,9.83
2023-04-20T04:18:59.413Z,11.00
2023-04-20T04:21:21.168Z,11.50
2023-04-20T04:23:43.260Z,11.17
2023-04-20T04:26:06.052Z,11.30
2023-04-20T04:28:27.517Z,10.53
2023-04-20T04:30:48.877Z,10.93
2023-04-20T04:33:11.787Z,11.63
2023-04-20T04:35:34.515Z,11.37
2023-04-20T04:37:55.740Z,11.03
2023-04-20T04:40:18.312Z,11.37
2023-04-20T04:42:40.816Z,12.60
2023-04-20T04:45:04.565Z,13.07
2023-04-20T04:47:25.756Z,11.00
2023-04-20T04:49:48.005Z,12.40
2023-04-20T04:52:10.642Z,15.23
2023-04-20T04:54:31.712Z,15.43
2023-04-20T04:56:52.986Z,14.80
2023-04-20T04:59:15.796Z,12.93
2023-04-20T05:01:37.000Z,13.43
2023-04-20T05:03:58.450Z,14.43
2023-04-20T05:06:20.047Z,12.83
2023-04-20T05:08:41.499Z,12.30
2023-04-20T05:11:02.664Z,12.30
2023-04-20T05:13:23.953Z,12.93
2023-04-20T05:15:46.562Z,14.63
2023-04-20T05:18:08.560Z,14.27
2023-04-20T05:20:29.889Z,15.33
2023-04-20T05:22:51.120Z,13.00
2023-04-20T05:25:14.001Z,15.23
2023-04-20T05:27:35.551Z,13.47
2023-04-20T05:29:58.420Z,15.20
2023-04-20T05:32:26.477Z,15.20
2023-04-20T05:34:47.825Z,14.83
2023-04-20T05:37:09.416Z,15.20
2023-04-20T05:39:30.506Z,13.57
2023-04-20T05:41:52.034Z,15.60
2023-04-20T05:44:13.187Z,13.80
2023-04-20T05:46:34.167Z,13.77
2023-04-20T05:48:56.976Z,15.43
2023-04-20T05:51:18.184Z,13.30
2023-04-20T05:53:39.513Z,13.40
2023-04-20T05:56:00.744Z,13.60
2023-04-20T05:58:22.067Z,13.60
2023-04-20T06:00:43.450Z,12.77
2023-04-20T06:03:05.125Z,13.07
2023-04-20T06:05:27.995Z,14.03
2023-04-20T06:07:49.376Z,13.67
2023-04-20T06:10:10.764Z,13.47
2023-04-20T06:12:31.998Z,15.07
2023-04-20T06:14:53.248Z,13.57
2023-04-20T06:17:14.589Z,11.97
2023-04-20T06:19:36.027Z,11.57
2023-04-20T06:22:00.985Z,14.50
2023-04-20T06:24:22.409Z,11.77
2023-04-20T06:26:43.635Z,11.37
2023-04-20T06:29:04.854Z,12.17
2023-04-20T06:31:26.106Z,11.97
2023-04-20T06:33:47.750Z,12.53
2023-04-20T06:36:09.089Z,12.50
2023-04-20T06:38:31.801Z,11.70
2023-04-20T06:40:53.063Z,11.43
2023-04-20T06:43:14.277Z,11.83
2023-04-20T06:45:35.636Z,11.63
2023-04-20T06:47:56.981Z,11.30
2023-04-20T06:50:18.310Z,11.63
2023-04-20T06:52:40.929Z,11.53
2023-04-20T06:55:03.368Z,12.63
2023-04-20T06:57:24.800Z,11.70
2023-04-20T06:59:46.176Z,11.57
2023-04-20T07:02:07.752Z,12.13
2023-04-20T07:04:29.420Z,11.00
2023-04-20T07:06:53.822Z,11.37
2023-04-20T07:09:15.545Z,11.07
2023-04-20T07:11:38.096Z,10.90
2023-04-20T07:13:59.547Z,11.23
2023-04-20T07:16:20.976Z,12.07
2023-04-20T07:18:42.224Z,10.03
2023-04-20T07:21:03.552Z,11.30
2023-04-20T07:23:24.903Z,10.83
2023-04-20T07:25:46.155Z,10.63
2023-04-20T07:28:08.795Z,10.37
2023-04-20T07:30:31.280Z,11.03
2023-04-20T07:32:52.421Z,10.40
2023-04-20T07:35:13.580Z,12.23
2023-04-20T07:37:35.039Z,10.57
2023-04-20T07:39:56.331Z,11.87
2023-04-20T07:42:17.698Z,11.50
2023-04-20T07:44:40.383Z,11.20
2023-04-20T07:47:02.929Z,10.57
2023-04-20T07:49:24.072Z,10.83
2023-04-20T07:51:45.435Z,10.50
2023-04-20T07:54:07.029Z,9.77
2023-04-20T07:56:28.531Z,10.57
2023-04-20T07:58:49.850Z,10.33
2023-04-20T08:01:12.641Z,9.37
2023-04-20T08:03:35.357Z,10.07
2023-04-20T08:05:56.949Z,10.60
2023-04-20T08:08:18.211Z,11.33
2023-04-20T08:10:39.155Z,11.33
2023-04-20T08:13:00.566Z,13.33
2023-04-20T08:15:21.457Z,11.83
2023-04-20T08:17:44.150Z,10.93
2023-04-20T08:20:06.277Z,12.57
2023-04-20T08:22:30.047Z,12.30
2023-04-20T08:24:51.643Z,11.37
2023-04-20T08:27:12.754Z,12.47
2023-04-20T08:29:34.061Z,11.73
2023-04-20T08:31:55.685Z,13.03
2023-04-20T08:34:18.232Z,12.70
2023-04-20T08:36:39.560Z,13.20
2023-04-20T08:39:07.640Z,12.07
2023-04-20T08:41:28.598Z,12.27
2023-04-20T08:43:51.334Z,12.03
2023-04-20T08:46:14.002Z,12.40
2023-04-20T08:48:36.390Z,12.27
2023-04-20T08:50:59.136Z,13.03
2023-04-20T08:53:20.258Z,11.47
2023-04-20T08:55:41.480Z,12.70
2023-04-20T08:58:02.696Z,12.23
2023-04-20T09:00:24.158Z,11.60
2023-04-20T09:02:52.047Z,11.70
2023-04-20T09:05:13.452Z,13.57
2023-04-20T09:07:36.213Z,11.63
2023-04-20T09:09:57.946Z,11.63
2023-04-20T09:12:21.089Z,11.67
2023-04-20T09:14:44.358Z,11.43
2023-04-20T09:17:05.373Z,13.20
2023-04-20T09:19:27.069Z,11.60
2023-04-20T09:21:49.784Z,10.40
2023-04-20T09:24:12.525Z,11.50
2023-04-20T09:26:34.966Z,12.50
2023-04-20T09:28:56.192Z,15.10
2023-04-20T09:31:21.468Z,11.90
2023-04-20T09:33:43.079Z,10.87
2023-04-20T09:36:04.942Z,11.77
2023-04-20T09:38:27.794Z,11.30
2023-04-20T09:40:51.213Z,11.40
2023-04-20T09:43:18.910Z,10.17
2023-04-20T09:45:40.767Z,11.27
2023-04-20T09:48:05.385Z,11.60
2023-04-20T09:50:38.277Z,10.80
2023-04-20T09:53:07.154Z,11.70
2023-04-20T09:55:28.817Z,12.50
2023-04-20T09:57:51.084Z,15.37
2023-04-20T10:00:14.371Z,11.50
2023-04-20T10:02:35.829Z,12.87
2023-04-20T10:04:57.940Z,12.57
2023-04-20T10:07:24.536Z,12.43
2023-04-20T10:09:46.426Z,13.03
2023-04-20T10:12:07.866Z,12.97
2023-04-20T10:14:29.184Z,13.23
2023-04-20T10:17:01.234Z,12.87
2023-04-20T10:19:22.404Z,13.13
2023-04-20T10:21:47.367Z,13.07
2023-04-20T10:24:08.448Z,11.83
2023-04-20T10:26:38.210Z,12.70
2023-04-20T10:28:59.101Z,11.77
2023-04-20T10:31:22.012Z,11.47
2023-04-20T10:33:51.348Z,11.53
2023-04-20T10:36:23.398Z,10.80
2023-04-20T10:38:44.700Z,10.80
2023-04-20T10:41:09.193Z,12.57
2023-04-20T10:43:30.327Z,11.37
2023-04-20T10:45:52.024Z,11.43
2023-04-20T10:48:14.508Z,10.50
2023-04-20T10:50:38.535Z,10.90
2023-04-20T10:52:59.693Z,11.37
2023-04-20T10:55:21.780Z,11.30
2023-04-20T10:57:45.913Z,11.80
2023-04-20T11:00:16.677Z,10.60
2023-04-20T11:02:46.623Z,10.97
2023-04-20T11:05:12.561Z,12.60
2023-04-20T11:07:35.305Z,12.03
2023-04-20T11:09:57.600Z,12.60
2023-04-20T11:12:18.895Z,11.97
2023-04-20T11:14:51.331Z,11.90
2023-04-20T11:17:12.686Z,12.63
2023-04-20T11:19:35.245Z,11.93
2023-04-20T11:21:56.741Z,11.63
2023-04-20T11:24:23.193Z,11.60
2023-04-20T11:26:44.254Z,12.43
2023-04-20T11:29:05.551Z,12.20
2023-04-20T11:31:28.089Z,11.43
2023-04-20T11:33:49.542Z,11.57
2023-04-20T11:36:19.190Z,10.60
2023-04-20T11:38:40.278Z,9.70
2023-04-20T11:41:06.811Z,9.80
2023-04-20T11:43:28.093Z,9.57
2023-04-20T11:45:49.313Z,10.57
2023-04-20T11:48:10.750Z,10.00
2023-04-20T11:50:32.222Z,9.50
2023-04-20T11:52:53.696Z,10.67
2023-04-20T11:55:15.249Z,10.33
2023-04-20T11:57:38.006Z,9.53
2023-04-20T11:59:59.396Z,9.87
2023-04-20T12:02:20.680Z,10.27
2023-04-20T12:04:42.190Z,9.90
2023-04-20T12:07:04.045Z,9.60
2023-04-20T12:09:25.401Z,9.67
2023-04-20T12:11:46.648Z,9.80
2023-04-20T12:14:09.299Z,10.80
2023-04-20T12:16:30.608Z,11.13
2023-04-20T12:18:51.720Z,10.10
2023-04-20T12:21:12.861Z,10.03
2023-04-20T12:23:34.191Z,10.07
2023-04-20T12:25:55.429Z,10.27
2023-04-20T12:28:16.508Z,9.47
2023-04-20T12:30:39.274Z,9.93
2023-04-20T12:33:00.548Z,10.20
2023-04-20T12:35:21.869Z,10.07
2023-04-20T12:37:42.959Z,10.07
2023-04-20T12:40:06.393Z,10.03
2023-04-20T12:42:27.855Z,10.63
2023-04-20T12:44:48.978Z,11.17
2023-04-20T12:47:13.615Z,10.17
2023-04-20T12:49:34.713Z,10.50
2023-04-20T12:51:55.902Z,10.67
2023-04-20T12:54:17.724Z,11.17
2023-04-20T12:56:38.975Z,10.67
2023-04-20T12:59:00.233Z,11.43
2023-04-20T13:01:21.616Z,10.93
2023-04-20T13:03:44.363Z,12.57
2023-04-20T13:06:06.093Z,11.50
2023-04-20T13:08:27.465Z,12.63
2023-04-20T13:10:48.888Z,12.27
2023-04-20T13:13:11.619Z,12.80
2023-04-20T13:17:59.091Z,12.23
2023-04-20T13:20:21.583Z,11.73
2023-04-20T13:22:54.491Z,11.70
2023-04-20T13:25:18.924Z,11.33
2023-04-20T13:27:40.118Z,11.07
2023-04-20T13:30:01.555Z,9.67
2023-04-20T13:32:22.917Z,9.57
2023-04-20T13:34:44.197Z,9.03
2023-04-20T13:37:07.066Z,9.40
2023-04-20T13:39:28.351Z,9.93
2023-04-20T13:41:49.971Z,8.60
2023-04-20T13:44:15.956Z,9.60
2023-04-20T13:46:37.478Z,9.70
2023-04-20T13:48:58.645Z,8.83
2023-04-20T13:51:20.418Z,8.97
2023-04-20T13:53:43.119Z,9.13
2023-04-20T13:56:05.010Z,8.83
2023-04-20T13:58:28.381Z,8.87
2023-04-20T14:00:49.708Z,8.50
2023-04-20T14:03:11.805Z,7.90
2023-04-20T14:05:32.939Z,8.60
2023-04-20T14:07:54.096Z,8.67
2023-04-20T14:10:16.730Z,8.97
2023-04-20T14:12:37.896Z,8.53
2023-04-20T14:14:59.441Z,9.97
2023-04-20T14:17:20.408Z,8.93
2023-04-20T14:19:41.800Z,9.60
2023-04-20T14:22:03.002Z,10.40
2023-04-20T14:24:24.139Z,10.47
2023-04-20T14:26:46.787Z,10.47
2023-04-20T14:29:07.991Z,10.93
2023-04-20T14:31:29.525Z,11.53
2023-04-20T14:33:51.594Z,13.73
2023-04-20T14:36:12.952Z,10.77
2023-04-20T14:38:34.295Z,11.30
2023-04-20T14:40:55.530Z,11.30
2023-04-20T14:43:18.044Z,12.33
2023-04-20T14:45:41.553Z,11.23
2023-04-20T14:48:03.084Z,11.70
2023-04-20T14:50:27.248Z,12.13
2023-04-20T14:52:48.532Z,11.87
2023-04-20T14:55:10.297Z,11.80
2023-04-20T14:57:32.092Z,10.93
2023-04-20T14:59:54.454Z,10.87
2023-04-20T15:02:15.833Z,11.17
2023-04-20T15:04:37.405Z,12.60
2023-04-20T15:06:58.610Z,12.23
2023-04-20T15:09:19.966Z,12.23
2023-04-20T15:11:41.399Z,12.07
2023-04-20T15:14:02.654Z,12.50
2023-04-20T15:16:25.263Z,12.10
2023-04-20T15:18:46.621Z,12.07
2023-04-20T15:21:08.403Z,12.30
2023-04-20T15:23:29.609Z,12.57
2023-04-20T15:25:50.722Z,12.47
2023-04-20T15:28:12.231Z,11.83
2023-04-20T15:30:33.336Z,12.30
2023-04-20T15:32:56.019Z,11.73
2023-04-20T15:35:26.423Z,12.43
2023-04-20T15:37:47.666Z,12.27
2023-04-20T15:40:09.389Z,12.03
2023-04-20T15:42:30.447Z,11.90
2023-04-20T15:44:51.854Z,12.73
2023-04-20T15:47:13.132Z,12.67
2023-04-20T15:49:40.477Z,11.77
2023-04-20T15:52:01.763Z,11.40
2023-04-20T15:54:23.769Z,12.73
2023-04-20T15:56:45.146Z,11.37
2023-04-20T15:59:06.401Z,12.23
2023-04-20T16:01:27.782Z,12.43
2023-04-20T16:03:49.961Z,16.40
2023-04-20T16:06:12.896Z,13.90
2023-04-20T16:08:34.204Z,14.83
2023-04-20T16:10:55.965Z,13.50
2023-04-20T16:13:17.355Z,13.40
2023-04-20T16:15:39.946Z,13.57
2023-04-20T16:18:01.091Z,14.73
2023-04-20T16:20:22.806Z,13.87
2023-04-20T16:22:45.383Z,13.73
2023-04-20T16:25:07.437Z,12.70
2023-04-20T16:27:28.625Z,13.20
2023-04-20T16:29:49.809Z,12.50
2023-04-20T16:32:11.836Z,12.97
2023-04-20T16:34:32.905Z,13.30
2023-04-20T16:36:54.348Z,12.23
2023-04-20T16:39:17.780Z,12.13
2023-04-20T16:41:38.804Z,12.77
2023-04-20T16:44:00.245Z,12.13
2023-04-20T16:46:22.397Z,12.37
2023-04-20T16:48:44.140Z,12.40
2023-04-20T16:51:05.430Z,12.80
2023-04-20T16:53:26.783Z,13.07
2023-04-20T16:55:49.214Z,13.07
2023-04-20T16:58:10.559Z,14.87
2023-04-20T17:00:32.405Z,18.33
2023-04-20T17:02:53.700Z,15.20
2023-04-20T17:05:14.802Z,13.43
2023-04-20T17:07:36.435Z,13.47
2023-04-20T17:09:57.776Z,13.03
2023-04-20T17:12:20.276Z,14.37
2023-04-20T17:14:42.237Z,14.30
2023-04-20T17:17:03.965Z,15.83
2023-04-20T17:19:25.342Z,14.67
2023-04-20T17:21:47.292Z,14.63
2023-04-20T17:24:08.594Z,14.50
2023-04-20T17:26:30.198Z,15.07
2023-04-20T17:28:53.636Z,15.50
2023-04-20T17:31:14.693Z,14.63
2023-04-20T17:33:36.321Z,15.00
2023-04-20T17:35:57.495Z,13.67
2023-04-20T17:38:18.632Z,14.37
2023-04-20T17:40:39.816Z,14.53
2023-04-20T17:43:01.091Z,13.07
2023-04-20T17:45:24.011Z,13.83
2023-04-20T17:47:45.258Z,12.57
2023-04-20T17:50:07.106Z,12.80
2023-04-20T17:52:28.218Z,13.43
2023-04-20T17:54:49.457Z,12.73
2023-04-20T17:57:10.854Z,12.17
2023-04-20T17:59:32.189Z,12.00
2023-04-20T18:01:54.935Z,12.83
2023-04-20T18:04:16.471Z,13.10
2023-04-20T18:06:37.854Z,12.87
2023-04-20T18:08:59.645Z,12.73
2023-04-20T18:11:21.629Z,12.63
2023-04-20T18:13:42.868Z,12.67
2023-04-20T18:16:07.320Z,12.97
2023-04-20T18:18:29.913Z,13.10
2023-04-20T18:20:51.220Z,13.80
2023-04-20T18:23:13.682Z,13.60
2023-04-20T18:25:35.053Z,13.53
2023-04-20T18:27:56.438Z,13.00
2023-04-20T18:30:19.033Z,13.63
2023-04-20T18:32:40.360Z,14.63
2023-04-20T18:35:03.896Z,15.37
2023-04-20T18:37:25.303Z,16.00
2023-04-20T18:39:46.764Z,16.77
2023-04-20T18:42:07.724Z,17.30
2023-04-20T18:44:29.213Z,17.47
2023-04-20T18:46:50.489Z,15.20
2023-04-20T18:49:11.762Z,15.70
2023-04-20T18:51:34.491Z,15.27
2023-04-20T18:53:55.891Z,15.43
2023-04-20T18:56:17.164Z,16.17
2023-04-20T18:58:38.664Z,16.77
2023-04-20T19:01:01.321Z,17.03
2023-04-20T19:03:22.753Z,16.10
2023-04-20T19:05:43.969Z,16.97
2023-04-20T19:08:06.835Z,16.07
2023-04-20T19:10:28.693Z,17.57
2023-04-20T19:12:49.804Z,17.47
2023-04-20T19:15:11.627Z,17.30
2023-04-20T19:17:32.862Z,17.23
2023-04-20T19:19:55.229Z,17.60
2023-04-20T19:22:16.271Z,18.37
2023-04-20T19:24:38.988Z,18.27
2023-04-20T19:27:00.828Z,17.97
2023-04-20T19:29:21.877Z,17.03
2023-04-20T19:31:43.349Z,19.87
2023-04-20T19:34:05.099Z,19.93
2023-04-20T19:36:26.639Z,18.67
2023-04-20T19:38:48.151Z,19.63
2023-04-20T19:41:11.001Z,21.07
2023-04-20T19:43:32.546Z,21.50
2023-04-20T19:45:54.323Z,22.50
2023-04-20T19:48:15.758Z,20.60
2023-04-20T19:50:37.000Z,20.53
2023-04-20T19:52:58.775Z,19.80
2023-04-20T19:55:20.011Z,19.70
2023-04-20T19:57:42.831Z,21.63
2023-04-20T20:00:05.592Z,21.60
2023-04-20T20:02:26.750Z,20.80
2023-04-20T20:04:49.625Z,19.80
2023-04-20T20:07:11.203Z,20.77
2023-04-20T20:09:32.731Z,21.23
2023-04-20T20:11:54.229Z,19.53
2023-04-20T20:14:17.188Z,20.23
2023-04-20T20:16:38.591Z,20.43
2023-04-20T20:18:59.776Z,20.00
2023-04-20T20:21:21.491Z,21.30
2023-04-20T20:23:42.530Z,21.50
2023-04-20T20:26:03.792Z,20.40
2023-04-20T20:28:25.080Z,22.13
2023-04-20T20:30:47.985Z,22.07
2023-04-20T20:33:09.528Z,20.67
2023-04-20T20:35:33.077Z,19.67
2023-04-20T20:37:54.764Z,19.43
2023-04-20T20:40:15.969Z,19.13
2023-04-20T20:42:38.820Z,19.23
2023-04-20T20:45:00.365Z,19.47
2023-04-20T20:47:23.251Z,20.00
2023-04-20T20:49:44.369Z,19.30
2023-04-20T20:52:07.238Z,18.97
2023-04-20T20:54:29.097Z,18.73
2023-04-20T20:56:50.553Z,20.10
2023-04-20T20:59:12.044Z,20.93
2023-04-20T21:01:33.406Z,19.40
2023-04-20T21:03:56.164Z,20.57
2023-04-20T21:06:17.389Z,22.00
2023-04-20T21:08:38.454Z,20.40
2023-04-20T21:10:59.662Z,19.33
2023-04-20T21:13:21.939Z,20.13
2023-04-20T21:15:43.267Z,19.40
2023-04-20T21:18:04.655Z,22.13
2023-04-20T21:20:27.338Z,21.07
2023-04-20T21:22:48.277Z,22.80
2023-04-20T21:25:10.197Z,22.50
2023-04-20T21:27:31.295Z,22.50
2023-04-20T21:29:52.521Z,22.20
2023-04-20T21:32:13.841Z,22.93
2023-04-20T21:34:35.021Z,22.93
2023-04-20T21:37:03.430Z,23.30
2023-04-20T21:39:24.670Z,23.60
2023-04-20T21:41:46.083Z,23.87
2023-04-20T21:44:07.259Z,23.13
2023-04-20T21:46:28.534Z,24.60
2023-04-20T21:48:49.693Z,21.27
2023-04-20T21:51:15.246Z,23.17
2023-04-20T21:53:38.079Z,22.00
2023-04-20T21:55:59.528Z,21.43
2023-04-20T21:58:20.713Z,21.67
2023-04-20T22:00:42.069Z,21.03
2023-04-20T22:03:03.535Z,19.93
2023-04-20T22:05:24.810Z,20.30
2023-04-20T22:07:46.941Z,19.60
2023-04-20T22:10:09.890Z,18.50
2023-04-20T22:12:39.413Z,21.33
2023-04-20T22:15:01.066Z,21.07
2023-04-20T22:17:23.703Z,19.33
2023-04-20T22:19:45.270Z,19.50
2023-04-20T22:22:06.750Z,18.57
2023-04-20T22:24:28.079Z,21.57
2023-04-20T22:26:50.795Z,21.13
2023-04-20T22:29:11.981Z,21.97
2023-04-20T22:31:33.321Z,21.47
2023-04-20T22:33:54.272Z,23.93
2023-04-20T22:36:15.627Z,23.93
2023-04-20T22:38:36.950Z,22.83
2023-04-20T22:40:58.188Z,22.07
2023-04-20T22:43:21.407Z,21.40
2023-04-20T22:45:42.429Z,20.50
2023-04-20T22:48:03.798Z,20.47
2023-04-20T22:50:25.217Z,21.57
2023-04-20T22:52:46.502Z,21.87
2023-04-20T22:55:08.827Z,24.13
2023-04-20T22:57:30.216Z,25.13
2023-04-20T22:59:52.824Z,26.63
2023-04-20T23:02:14.130Z,22.47
2023-04-20T23:04:37.882Z,22.67
2023-04-20T23:06:58.982Z,25.53
2023-04-20T23:09:20.795Z,28.37
2023-04-20T23:11:43.474Z,24.97
2023-04-20T23:14:05.055Z,26.40
2023-04-20T23:16:28.105Z,24.10
2023-04-20T23:18:49.365Z,25.23
2023-04-20T23:21:10.643Z,25.27
2023-04-20T23:23:32.126Z,26.17
2023-04-20T23:25:53.347Z,23.23
2023-04-20T23:28:14.815Z,23.77
2023-04-20T23:30:36.467Z,23.70
2023-04-20T23:32:59.034Z,22.03
2023-04-20T23:35:20.371Z,22.00
2023-04-20T23:37:41.600Z,22.60
2023-04-20T23:40:06.697Z,22.20
2023-04-20T23:42:27.937Z,24.60
2023-04-20T23:44:49.470Z,26.07
2023-04-20T23:47:10.834Z,25.20
2023-04-20T23:49:33.505Z,26.37
2023-04-20T23:51:54.748Z,24.60
2023-04-20T23:54:16.578Z,24.80
2023-04-20T23:56:38.576Z,25.13
2023-04-20T23:59:00.109Z,25.67
